sensor_id;sensor_type;location;lat;lon;timestamp;pressure;altitude;pressure_sealevel;temperature;humidity
29549;BME280;16487;53.094;8.800;2022-08-19T00:02:03;101730.06;;;18.49;100.00
29549;BME280;16487;53.094;8.800;2022-08-19T00:04:34;101747.66;;;18.53;100.00
29549;BME280;16487;53.094;8.800;2022-08-19T00:07:04;101756.72;;;18.48;100.00
29549;BME280;16487;53.094;8.800;2022-08-19T00:09:35;101770.56;;;18.46;100.00
29549;BME280;16487;53.094;8.800;2022-08-19T00:12:05;101771.31;;;18.55;100.00
29549;BME280;16487;53.094;8.800;2022-08-19T00:14:34;101771.31;;;18.46;100.00
29549;BME280;16487;53.094;8.800;2022-08-19T00:17:06;101774.31;;;18.43;100.00
29549;BME280;16487;53.094;8.800;2022-08-19T00:19:36;101766.94;;;18.45;100.00
29549;BME280;16487;53.094;8.800;2022-08-19T00:22:05;101761.59;;;18.47;100.00
29549;BME280;16487;53.094;8.800;2022-08-19T00:24:37;101764.28;;;18.42;100.00
29549;BME280;16487;53.094;8.800;2022-08-19T00:27:16;101759.44;;;18.42;100.00
29549;BME280;16487;53.094;8.800;2022-08-19T00:29:53;101752.66;;;18.49;100.00
29549;BME280;16487;53.094;8.800;2022-08-19T00:32:22;101753.28;;;18.53;100.00
29549;BME280;16487;53.094;8.800;2022-08-19T00:34:53;101751.06;;;18.57;100.00
29549;BME280;16487;53.094;8.800;2022-08-19T00:37:24;101739.28;;;18.67;100.00
29549;BME280;16487;53.094;8.800;2022-08-19T00:39:55;101723.94;;;18.59;100.00
29549;BME280;16487;53.094;8.800;2022-08-19T00:42:24;101712.00;;;18.64;100.00
29549;BME280;16487;53.094;8.800;2022-08-19T00:44:55;101699.91;;;18.64;100.00
29549;BME280;16487;53.094;8.800;2022-08-19T00:47:24;101693.00;;;18.65;100.00
29549;BME280;16487;53.094;8.800;2022-08-19T00:49:56;101707.63;;;18.54;100.00
29549;BME280;16487;53.094;8.800;2022-08-19T00:52:27;101722.50;;;18.64;100.00
29549;BME280;16487;53.094;8.800;2022-08-19T00:55:00;101723.13;;;18.68;100.00
29549;BME280;16487;53.094;8.800;2022-08-19T00:57:32;101726.91;;;18.65;100.00
29549;BME280;16487;53.094;8.800;2022-08-19T01:00:09;101730.81;;;18.58;100.00
29549;BME280;16487;53.094;8.800;2022-08-19T01:02:39;101735.38;;;18.65;100.00
29549;BME280;16487;53.094;8.800;2022-08-19T01:05:11;101730.97;;;18.64;100.00
29549;BME280;16487;53.094;8.800;2022-08-19T01:07:43;101730.31;;;18.69;100.00
29549;BME280;16487;53.094;8.800;2022-08-19T01:10:16;101722.50;;;18.64;100.00
29549;BME280;16487;53.094;8.800;2022-08-19T01:12:47;101727.53;;;18.60;100.00
29549;BME280;16487;53.094;8.800;2022-08-19T01:15:18;101714.66;;;18.59;100.00
29549;BME280;16487;53.094;8.800;2022-08-19T01:17:50;101714.66;;;18.59;100.00
29549;BME280;16487;53.094;8.800;2022-08-19T01:20:23;101711.38;;;18.60;100.00
29549;BME280;16487;53.094;8.800;2022-08-19T01:22:57;101710.88;;;18.62;100.00
29549;BME280;16487;53.094;8.800;2022-08-19T01:25:30;101701.66;;;18.61;100.00
29549;BME280;16487;53.094;8.800;2022-08-19T01:28:00;101701.50;;;18.65;100.00
29549;BME280;16487;53.094;8.800;2022-08-19T01:30:37;101695.53;;;18.63;100.00
29549;BME280;16487;53.094;8.800;2022-08-19T01:33:10;101693.03;;;18.56;100.00
29549;BME280;16487;53.094;8.800;2022-08-19T01:35:40;101688.22;;;18.47;100.00
29549;BME280;16487;53.094;8.800;2022-08-19T01:38:21;101690.88;;;18.51;100.00
29549;BME280;16487;53.094;8.800;2022-08-19T01:40:51;101693.06;;;18.47;100.00
29549;BME280;16487;53.094;8.800;2022-08-19T01:43:20;101689.59;;;18.43;100.00
29549;BME280;16487;53.094;8.800;2022-08-19T01:45:48;101690.41;;;18.43;100.00
29549;BME280;16487;53.094;8.800;2022-08-19T01:48:18;101683.63;;;18.50;100.00
29549;BME280;16487;53.094;8.800;2022-08-19T01:50:47;101678.00;;;18.50;100.00
29549;BME280;16487;53.094;8.800;2022-08-19T01:53:18;101672.16;;;18.53;100.00
29549;BME280;16487;53.094;8.800;2022-08-19T01:55:49;101661.34;;;18.61;100.00
29549;BME280;16487;53.094;8.800;2022-08-19T01:58:22;101644.38;;;18.61;100.00
29549;BME280;16487;53.094;8.800;2022-08-19T02:00:57;101645.78;;;18.65;100.00
29549;BME280;16487;53.094;8.800;2022-08-19T02:03:26;101652.56;;;18.59;100.00
29549;BME280;16487;53.094;8.800;2022-08-19T02:05:57;101650.53;;;18.50;100.00
29549;BME280;16487;53.094;8.800;2022-08-19T02:08:29;101656.97;;;18.51;100.00
29549;BME280;16487;53.094;8.800;2022-08-19T02:10:58;101653.53;;;18.38;100.00
29549;BME280;16487;53.094;8.800;2022-08-19T02:13:27;101679.56;;;18.33;100.00
29549;BME280;16487;53.094;8.800;2022-08-19T02:15:55;101671.59;;;18.31;100.00
29549;BME280;16487;53.094;8.800;2022-08-19T02:18:26;101679.91;;;18.25;100.00
29549;BME280;16487;53.094;8.800;2022-08-19T02:20:55;101668.63;;;18.25;100.00
29549;BME280;16487;53.094;8.800;2022-08-19T02:23:23;101667.06;;;18.24;100.00
29549;BME280;16487;53.094;8.800;2022-08-19T02:25:53;101655.47;;;18.22;100.00
29549;BME280;16487;53.094;8.800;2022-08-19T02:28:23;101660.94;;;18.26;100.00
29549;BME280;16487;53.094;8.800;2022-08-19T02:30:51;101647.63;;;18.26;100.00
29549;BME280;16487;53.094;8.800;2022-08-19T02:33:20;101647.00;;;18.13;100.00
29549;BME280;16487;53.094;8.800;2022-08-19T02:35:49;101653.91;;;18.12;100.00
29549;BME280;16487;53.094;8.800;2022-08-19T02:38:18;101653.75;;;18.16;100.00
29549;BME280;16487;53.094;8.800;2022-08-19T02:40:58;101659.25;;;18.19;100.00
29549;BME280;16487;53.094;8.800;2022-08-19T02:43:29;101664.88;;;18.19;100.00
29549;BME280;16487;53.094;8.800;2022-08-19T02:46:01;101669.91;;;18.15;100.00
29549;BME280;16487;53.094;8.800;2022-08-19T02:48:30;101674.09;;;18.20;100.00
29549;BME280;16487;53.094;8.800;2022-08-19T02:51:00;101681.16;;;18.24;100.00
29549;BME280;16487;53.094;8.800;2022-08-19T02:53:29;101675.38;;;18.19;100.00
29549;BME280;16487;53.094;8.800;2022-08-19T02:55:59;101674.91;;;18.20;100.00
29549;BME280;16487;53.094;8.800;2022-08-19T02:58:28;101676.50;;;18.12;100.00
29549;BME280;16487;53.094;8.800;2022-08-19T03:00:57;101675.38;;;18.19;100.00
29549;BME280;16487;53.094;8.800;2022-08-19T03:03:27;101675.84;;;18.26;100.00
29549;BME280;16487;53.094;8.800;2022-08-19T03:06:05;101678.03;;;18.32;100.00
29549;BME280;16487;53.094;8.800;2022-08-19T03:08:35;101667.06;;;18.24;100.00
29549;BME280;16487;53.094;8.800;2022-08-19T03:11:05;101663.75;;;18.26;100.00
29549;BME280;16487;53.094;8.800;2022-08-19T03:13:36;101683.03;;;18.27;100.00
29549;BME280;16487;53.094;8.800;2022-08-19T03:16:05;101672.38;;;18.32;100.00
29549;BME280;16487;53.094;8.800;2022-08-19T03:18:34;101682.41;;;18.33;100.00
29549;BME280;16487;53.094;8.800;2022-08-19T03:21:04;101691.97;;;18.26;100.00
29549;BME280;16487;53.094;8.800;2022-08-19T03:23:38;101697.47;;;18.29;100.00
29549;BME280;16487;53.094;8.800;2022-08-19T03:26:08;101684.56;;;18.38;100.00
29549;BME280;16487;53.094;8.800;2022-08-19T03:28:44;101664.06;;;18.37;100.00
29549;BME280;16487;53.094;8.800;2022-08-19T03:31:19;101657.47;;;18.40;100.00
29549;BME280;16487;53.094;8.800;2022-08-19T03:34:09;101648.53;;;18.33;100.00
29549;BME280;16487;53.094;8.800;2022-08-19T03:36:39;101637.38;;;18.38;100.00
29549;BME280;16487;53.094;8.800;2022-08-19T03:39:09;101616.53;;;18.36;100.00
29549;BME280;16487;53.094;8.800;2022-08-19T03:41:41;101591.75;;;18.30;100.00
29549;BME280;16487;53.094;8.800;2022-08-19T03:44:13;101574.25;;;18.26;100.00
29549;BME280;16487;53.094;8.800;2022-08-19T03:46:46;101563.47;;;18.16;100.00
29549;BME280;16487;53.094;8.800;2022-08-19T03:49:15;101558.56;;;18.16;100.00
29549;BME280;16487;53.094;8.800;2022-08-19T03:51:46;101558.91;;;18.09;100.00
29549;BME280;16487;53.094;8.800;2022-08-19T03:54:17;101565.19;;;18.13;100.00
29549;BME280;16487;53.094;8.800;2022-08-19T03:56:49;101568.31;;;18.15;100.00
29549;BME280;16487;53.094;8.800;2022-08-19T03:59:22;101577.09;;;18.17;100.00
29549;BME280;16487;53.094;8.800;2022-08-19T04:01:53;101569.59;;;18.14;100.00
29549;BME280;16487;53.094;8.800;2022-08-19T04:04:23;101578.38;;;18.07;100.00
29549;BME280;16487;53.094;8.800;2022-08-19T04:06:56;101576.94;;;18.12;100.00
29549;BME280;16487;53.094;8.800;2022-08-19T04:09:25;101572.25;;;18.09;100.00
29549;BME280;16487;53.094;8.800;2022-08-19T04:11:56;101578.66;;;18.09;100.00
29549;BME280;16487;53.094;8.800;2022-08-19T04:14:28;101589.16;;;18.18;100.00
29549;BME280;16487;53.094;8.800;2022-08-19T04:16:58;101603.13;;;18.12;100.00
29549;BME280;16487;53.094;8.800;2022-08-19T04:19:30;101614.09;;;18.10;100.00
29549;BME280;16487;53.094;8.800;2022-08-19T04:21:59;101629.34;;;18.04;100.00
29549;BME280;16487;53.094;8.800;2022-08-19T04:24:27;101629.19;;;17.98;100.00
29549;BME280;16487;53.094;8.800;2022-08-19T04:26:59;101637.34;;;17.87;100.00
29549;BME280;16487;53.094;8.800;2022-08-19T04:29:27;101654.25;;;17.78;100.00
29549;BME280;16487;53.094;8.800;2022-08-19T04:31:57;101664.13;;;17.65;100.00
29549;BME280;16487;53.094;8.800;2022-08-19T04:34:36;101679.97;;;17.53;100.00
29549;BME280;16487;53.094;8.800;2022-08-19T04:37:26;101689.34;;;17.50;100.00
29549;BME280;16487;53.094;8.800;2022-08-19T04:40:05;101692.75;;;17.36;100.00
29549;BME280;16487;53.094;8.800;2022-08-19T04:42:52;101714.34;;;17.30;100.00
29549;BME280;16487;53.094;8.800;2022-08-19T04:45:22;101723.38;;;17.16;100.00
29549;BME280;16487;53.094;8.800;2022-08-19T04:47:54;101733.66;;;17.01;100.00
29549;BME280;16487;53.094;8.800;2022-08-19T04:50:44;101741.63;;;17.02;100.00
29549;BME280;16487;53.094;8.800;2022-08-19T04:53:13;101750.56;;;17.01;100.00
29549;BME280;16487;53.094;8.800;2022-08-19T04:55:42;101762.09;;;16.94;100.00
29549;BME280;16487;53.094;8.800;2022-08-19T04:58:13;101770.22;;;16.92;100.00
29549;BME280;16487;53.094;8.800;2022-08-19T05:00:43;101782.41;;;16.89;100.00
29549;BME280;16487;53.094;8.800;2022-08-19T05:03:12;101790.81;;;16.80;100.00
29549;BME280;16487;53.094;8.800;2022-08-19T05:05:42;101791.34;;;16.87;100.00
29549;BME280;16487;53.094;8.800;2022-08-19T05:08:12;101801.81;;;16.87;100.00
29549;BME280;16487;53.094;8.800;2022-08-19T05:10:58;101807.09;;;16.85;100.00
29549;BME280;16487;53.094;8.800;2022-08-19T05:13:28;101825.25;;;16.84;100.00
29549;BME280;16487;53.094;8.800;2022-08-19T05:15:58;101821.66;;;16.83;100.00
29549;BME280;16487;53.094;8.800;2022-08-19T05:18:28;101818.84;;;16.83;100.00
29549;BME280;16487;53.094;8.800;2022-08-19T05:21:18;101823.09;;;16.88;100.00
29549;BME280;16487;53.094;8.800;2022-08-19T05:24:05;101820.91;;;16.92;100.00
29549;BME280;16487;53.094;8.800;2022-08-19T05:26:36;101826.59;;;17.01;100.00
29549;BME280;16487;53.094;8.800;2022-08-19T05:29:07;101808.28;;;16.96;100.00
29549;BME280;16487;53.094;8.800;2022-08-19T05:31:37;101794.47;;;16.89;100.00
29549;BME280;16487;53.094;8.800;2022-08-19T05:34:08;101793.53;;;16.92;100.00
29549;BME280;16487;53.094;8.800;2022-08-19T05:36:47;101786.97;;;16.95;100.00
29549;BME280;16487;53.094;8.800;2022-08-19T05:39:18;101792.00;;;16.91;100.00
29549;BME280;16487;53.094;8.800;2022-08-19T05:41:49;101794.97;;;16.97;100.00
29549;BME280;16487;53.094;8.800;2022-08-19T05:44:20;101784.06;;;17.08;100.00
29549;BME280;16487;53.094;8.800;2022-08-19T05:46:49;101774.38;;;17.09;100.00
29549;BME280;16487;53.094;8.800;2022-08-19T05:49:22;101770.13;;;17.04;100.00
29549;BME280;16487;53.094;8.800;2022-08-19T05:51:51;101763.09;;;17.09;100.00
29549;BME280;16487;53.094;8.800;2022-08-19T05:54:19;101759.03;;;17.10;100.00
29549;BME280;16487;53.094;8.800;2022-08-19T05:56:50;101752.00;;;17.14;100.00
29549;BME280;16487;53.094;8.800;2022-08-19T05:59:22;101743.41;;;17.18;100.00
29549;BME280;16487;53.094;8.800;2022-08-19T06:01:51;101744.34;;;17.15;100.00
29549;BME280;16487;53.094;8.800;2022-08-19T06:04:21;101740.78;;;17.24;100.00
29549;BME280;16487;53.094;8.800;2022-08-19T06:06:51;101733.94;;;17.43;100.00
29549;BME280;16487;53.094;8.800;2022-08-19T06:09:22;101733.47;;;17.44;100.00
29549;BME280;16487;53.094;8.800;2022-08-19T06:11:52;101731.31;;;17.48;100.00
29549;BME280;16487;53.094;8.800;2022-08-19T06:14:26;101729.91;;;17.53;100.00
29549;BME280;16487;53.094;8.800;2022-08-19T06:16:56;101717.50;;;17.41;100.00
29549;BME280;16487;53.094;8.800;2022-08-19T06:19:25;101711.28;;;17.55;100.00
29549;BME280;16487;53.094;8.800;2022-08-19T06:21:56;101720.22;;;17.72;100.00
29549;BME280;16487;53.094;8.800;2022-08-19T06:24:27;101707.38;;;17.71;100.00
29549;BME280;16487;53.094;8.800;2022-08-19T06:26:57;101700.63;;;17.68;100.00
29549;BME280;16487;53.094;8.800;2022-08-19T06:29:29;101692.19;;;17.68;100.00
29549;BME280;16487;53.094;8.800;2022-08-19T06:32:01;101686.56;;;17.86;100.00
29549;BME280;16487;53.094;8.800;2022-08-19T06:34:32;101689.19;;;18.08;100.00
29549;BME280;16487;53.094;8.800;2022-08-19T06:37:01;101677.72;;;18.20;100.00
29549;BME280;16487;53.094;8.800;2022-08-19T06:39:34;101660.47;;;18.27;100.00
29549;BME280;16487;53.094;8.800;2022-08-19T06:42:04;101637.25;;;18.42;100.00
29549;BME280;16487;53.094;8.800;2022-08-19T06:44:40;101610.28;;;18.41;100.00
29549;BME280;16487;53.094;8.800;2022-08-19T06:47:17;101598.34;;;18.46;100.00
29549;BME280;16487;53.094;8.800;2022-08-19T06:49:55;101581.06;;;18.53;100.00
29549;BME280;16487;53.094;8.800;2022-08-19T06:52:29;101573.94;;;18.66;100.00
29549;BME280;16487;53.094;8.800;2022-08-19T06:55:00;101577.31;;;18.47;100.00
29549;BME280;16487;53.094;8.800;2022-08-19T06:57:33;101580.78;;;18.74;100.00
29549;BME280;16487;53.094;8.800;2022-08-19T07:00:05;101563.28;;;18.85;100.00
29549;BME280;16487;53.094;8.800;2022-08-19T07:02:40;101553.78;;;18.97;100.00
29549;BME280;16487;53.094;8.800;2022-08-19T07:05:21;101541.69;;;18.96;100.00
29549;BME280;16487;53.094;8.800;2022-08-19T07:07:50;101542.19;;;18.95;100.00
29549;BME280;16487;53.094;8.800;2022-08-19T07:10:23;101542.50;;;18.97;100.00
29549;BME280;16487;53.094;8.800;2022-08-19T07:12:52;101538.63;;;19.09;100.00
29549;BME280;16487;53.094;8.800;2022-08-19T07:15:23;101530.09;;;19.18;100.00
29549;BME280;16487;53.094;8.800;2022-08-19T07:17:51;101532.97;;;19.09;100.00
29549;BME280;16487;53.094;8.800;2022-08-19T07:20:21;101529.34;;;19.08;100.00
29549;BME280;16487;53.094;8.800;2022-08-19T07:22:55;101532.59;;;19.16;100.00
29549;BME280;16487;53.094;8.800;2022-08-19T07:25:24;101525.25;;;19.33;100.00
29549;BME280;16487;53.094;8.800;2022-08-19T07:27:59;101523.41;;;19.30;100.00
29549;BME280;16487;53.094;8.800;2022-08-19T07:30:30;101526.84;;;19.34;100.00
29549;BME280;16487;53.094;8.800;2022-08-19T07:33:00;101521.94;;;19.34;100.00
29549;BME280;16487;53.094;8.800;2022-08-19T07:35:30;101518.47;;;19.54;100.00
29549;BME280;16487;53.094;8.800;2022-08-19T07:38:00;101510.06;;;19.45;100.00
29549;BME280;16487;53.094;8.800;2022-08-19T07:40:30;101517.00;;;19.44;100.00
29549;BME280;16487;53.094;8.800;2022-08-19T07:42:59;101517.59;;;19.63;100.00
29549;BME280;16487;53.094;8.800;2022-08-19T07:45:28;101528.13;;;19.62;100.00
29549;BME280;16487;53.094;8.800;2022-08-19T07:47:58;101526.28;;;19.74;100.00
29549;BME280;16487;53.094;8.800;2022-08-19T07:50:28;101514.84;;;19.83;100.00
29549;BME280;16487;53.094;8.800;2022-08-19T07:52:57;101517.56;;;20.06;100.00
29549;BME280;16487;53.094;8.800;2022-08-19T07:55:26;101508.69;;;20.13;100.00
29549;BME280;16487;53.094;8.800;2022-08-19T07:58:10;101504.88;;;20.02;100.00
29549;BME280;16487;53.094;8.800;2022-08-19T08:00:39;101511.81;;;20.15;100.00
29549;BME280;16487;53.094;8.800;2022-08-19T08:03:11;101507.03;;;20.21;100.00
29549;BME280;16487;53.094;8.800;2022-08-19T08:05:40;101515.13;;;20.28;100.00
29549;BME280;16487;53.094;8.800;2022-08-19T08:08:27;101495.91;;;20.52;100.00
29549;BME280;16487;53.094;8.800;2022-08-19T08:11:16;101478.31;;;20.89;100.00
29549;BME280;16487;53.094;8.800;2022-08-19T08:13:47;101466.56;;;20.56;100.00
29549;BME280;16487;53.094;8.800;2022-08-19T08:16:28;101467.41;;;20.82;100.00
29549;BME280;16487;53.094;8.800;2022-08-19T08:18:59;101457.78;;;20.94;100.00
29549;BME280;16487;53.094;8.800;2022-08-19T08:21:28;101454.88;;;21.08;100.00
29549;BME280;16487;53.094;8.800;2022-08-19T08:23:57;101456.63;;;21.26;100.00
29549;BME280;16487;53.094;8.800;2022-08-19T08:26:26;101454.25;;;20.99;100.00
29549;BME280;16487;53.094;8.800;2022-08-19T08:28:59;101468.97;;;21.23;100.00
29549;BME280;16487;53.094;8.800;2022-08-19T08:31:39;101468.28;;;21.33;100.00
29549;BME280;16487;53.094;8.800;2022-08-19T08:34:12;101467.56;;;21.64;100.00
29549;BME280;16487;53.094;8.800;2022-08-19T08:36:44;101459.41;;;21.77;100.00
29549;BME280;16487;53.094;8.800;2022-08-19T08:39:15;101459.63;;;21.74;100.00
29549;BME280;16487;53.094;8.800;2022-08-19T08:41:51;101457.16;;;21.30;100.00
29549;BME280;16487;53.094;8.800;2022-08-19T08:44:37;101460.13;;;21.72;100.00
29549;BME280;16487;53.094;8.800;2022-08-19T08:47:14;101471.38;;;21.61;100.00
29549;BME280;16487;53.094;8.800;2022-08-19T08:49:51;101463.84;;;21.78;100.00
29549;BME280;16487;53.094;8.800;2022-08-19T08:52:26;101466.81;;;21.95;100.00
29549;BME280;16487;53.094;8.800;2022-08-19T08:55:03;101460.41;;;21.74;100.00
29549;BME280;16487;53.094;8.800;2022-08-19T08:57:39;101465.50;;;21.96;100.00
29549;BME280;16487;53.094;8.800;2022-08-19T09:00:15;101456.03;;;21.73;100.00
29549;BME280;16487;53.094;8.800;2022-08-19T09:02:46;101456.13;;;22.57;100.00
29549;BME280;16487;53.094;8.800;2022-08-19T09:05:19;101429.78;;;22.62;100.00
29549;BME280;16487;53.094;8.800;2022-08-19T09:07:57;101409.94;;;22.79;100.00
29549;BME280;16487;53.094;8.800;2022-08-19T09:10:34;101415.19;;;23.03;100.00
29549;BME280;16487;53.094;8.800;2022-08-19T09:13:19;101423.19;;;23.04;100.00
29549;BME280;16487;53.094;8.800;2022-08-19T09:15:55;101419.56;;;22.98;100.00
29549;BME280;16487;53.094;8.800;2022-08-19T09:18:38;101433.97;;;22.30;100.00
29549;BME280;16487;53.094;8.800;2022-08-19T09:21:08;101434.63;;;22.51;100.00
29549;BME280;16487;53.094;8.800;2022-08-19T09:23:37;101444.28;;;22.64;100.00
29549;BME280;16487;53.094;8.800;2022-08-19T09:26:08;101439.63;;;22.67;100.00
29549;BME280;16487;53.094;8.800;2022-08-19T09:28:37;101445.94;;;22.40;100.00
29549;BME280;16487;53.094;8.800;2022-08-19T09:31:10;101463.00;;;22.03;100.00
29549;BME280;16487;53.094;8.800;2022-08-19T09:33:39;101447.69;;;22.32;100.00
29549;BME280;16487;53.094;8.800;2022-08-19T09:36:13;101453.38;;;22.37;100.00
29549;BME280;16487;53.094;8.800;2022-08-19T09:39:01;101448.00;;;22.45;100.00
29549;BME280;16487;53.094;8.800;2022-08-19T09:41:30;101440.56;;;22.47;100.00
29549;BME280;16487;53.094;8.800;2022-08-19T09:44:00;101437.78;;;22.58;100.00
29549;BME280;16487;53.094;8.800;2022-08-19T09:46:29;101429.31;;;22.69;100.00
29549;BME280;16487;53.094;8.800;2022-08-19T09:48:59;101394.25;;;24.11;100.00
29549;BME280;16487;53.094;8.800;2022-08-19T09:51:34;101386.81;;;24.59;100.00
29549;BME280;16487;53.094;8.800;2022-08-19T09:54:04;101372.69;;;26.37;100.00
29549;BME280;16487;53.094;8.800;2022-08-19T09:56:33;101365.50;;;27.05;100.00
29549;BME280;16487;53.094;8.800;2022-08-19T09:59:03;101348.94;;;27.93;100.00
29549;BME280;16487;53.094;8.800;2022-08-19T10:01:32;101344.69;;;28.46;100.00
29549;BME280;16487;53.094;8.800;2022-08-19T10:04:01;101341.19;;;29.20;100.00
29549;BME280;16487;53.094;8.800;2022-08-19T10:06:49;101342.22;;;28.76;100.00
29549;BME280;16487;53.094;8.800;2022-08-19T10:09:20;101328.34;;;30.19;100.00
29549;BME280;16487;53.094;8.800;2022-08-19T10:12:02;101335.53;;;29.97;100.00
29549;BME280;16487;53.094;8.800;2022-08-19T10:14:32;101331.06;;;29.06;100.00
29549;BME280;16487;53.094;8.800;2022-08-19T10:17:01;101320.75;;;28.44;100.00
29549;BME280;16487;53.094;8.800;2022-08-19T10:19:46;101313.53;;;29.31;100.00
29549;BME280;16487;53.094;8.800;2022-08-19T10:22:23;101312.94;;;29.32;100.00
29549;BME280;16487;53.094;8.800;2022-08-19T10:24:52;101317.78;;;28.49;100.00
29549;BME280;16487;53.094;8.800;2022-08-19T10:27:21;101318.31;;;29.77;100.00
29549;BME280;16487;53.094;8.800;2022-08-19T10:29:52;101316.63;;;30.45;100.00
29549;BME280;16487;53.094;8.800;2022-08-19T10:32:21;101325.84;;;28.51;100.00
29549;BME280;16487;53.094;8.800;2022-08-19T10:35:01;101320.09;;;28.51;100.00
29549;BME280;16487;53.094;8.800;2022-08-19T10:37:33;101325.78;;;27.91;100.00
29549;BME280;16487;53.094;8.800;2022-08-19T10:40:22;101320.06;;;27.91;100.00
29549;BME280;16487;53.094;8.800;2022-08-19T10:42:51;101312.22;;;27.34;100.00
29549;BME280;16487;53.094;8.800;2022-08-19T10:45:20;101304.03;;;28.22;100.00
29549;BME280;16487;53.094;8.800;2022-08-19T10:47:50;101300.22;;;27.93;100.00
29549;BME280;16487;53.094;8.800;2022-08-19T10:50:19;101297.47;;;28.60;100.00
29549;BME280;16487;53.094;8.800;2022-08-19T10:53:08;101301.19;;;28.08;100.00
29549;BME280;16487;53.094;8.800;2022-08-19T10:55:37;101304.19;;;28.96;100.00
29549;BME280;16487;53.094;8.800;2022-08-19T10:58:23;101314.25;;;28.43;100.00
29549;BME280;16487;53.094;8.800;2022-08-19T11:00:54;101308.34;;;30.06;100.00
29549;BME280;16487;53.094;8.800;2022-08-19T11:03:24;101304.06;;;30.27;100.00
29549;BME280;16487;53.094;8.800;2022-08-19T11:05:59;101315.41;;;29.49;100.00
29549;BME280;16487;53.094;8.800;2022-08-19T11:08:29;101312.50;;;28.53;100.00
29549;BME280;16487;53.094;8.800;2022-08-19T11:11:00;101303.59;;;29.60;100.00
29549;BME280;16487;53.094;8.800;2022-08-19T11:13:31;101297.59;;;29.71;100.00
29549;BME280;16487;53.094;8.800;2022-08-19T11:16:03;101298.19;;;31.74;100.00
29549;BME280;16487;53.094;8.800;2022-08-19T11:18:36;101300.13;;;31.11;100.00
29549;BME280;16487;53.094;8.800;2022-08-19T11:21:07;101295.34;;;31.44;100.00
29549;BME280;16487;53.094;8.800;2022-08-19T11:23:38;101305.06;;;30.02;100.00
29549;BME280;16487;53.094;8.800;2022-08-19T11:26:07;101290.13;;;31.20;100.00
29549;BME280;16487;53.094;8.800;2022-08-19T11:28:36;101297.41;;;30.98;100.00
29549;BME280;16487;53.094;8.800;2022-08-19T11:31:10;101303.78;;;29.34;100.00
29549;BME280;16487;53.094;8.800;2022-08-19T11:33:43;101297.28;;;30.17;100.00
29549;BME280;16487;53.094;8.800;2022-08-19T11:36:14;101289.69;;;29.92;100.00
29549;BME280;16487;53.094;8.800;2022-08-19T11:38:45;101280.16;;;31.51;100.00
29549;BME280;16487;53.094;8.800;2022-08-19T11:41:17;101290.16;;;31.65;100.00
29549;BME280;16487;53.094;8.800;2022-08-19T11:43:45;101277.47;;;31.30;100.00
29549;BME280;16487;53.094;8.800;2022-08-19T11:46:15;101279.75;;;31.70;100.00
29549;BME280;16487;53.094;8.800;2022-08-19T11:48:44;101281.88;;;31.62;100.00
29549;BME280;16487;53.094;8.800;2022-08-19T11:51:17;101273.59;;;31.81;100.00
29549;BME280;16487;53.094;8.800;2022-08-19T11:53:48;101279.38;;;31.66;100.00
29549;BME280;16487;53.094;8.800;2022-08-19T11:56:18;101274.72;;;30.80;100.00
29549;BME280;16487;53.094;8.800;2022-08-19T11:58:47;101276.00;;;30.56;100.00
29549;BME280;16487;53.094;8.800;2022-08-19T12:01:18;101276.09;;;31.77;100.00
29549;BME280;16487;53.094;8.800;2022-08-19T12:03:49;101270.84;;;30.77;100.00
29549;BME280;16487;53.094;8.800;2022-08-19T12:06:21;101268.81;;;31.30;100.00
29549;BME280;16487;53.094;8.800;2022-08-19T12:08:58;101259.41;;;29.98;100.00
29549;BME280;16487;53.094;8.800;2022-08-19T12:11:27;101276.09;;;30.00;100.00
29549;BME280;16487;53.094;8.800;2022-08-19T12:14:00;101274.16;;;29.67;100.00
29549;BME280;16487;53.094;8.800;2022-08-19T12:16:30;101275.44;;;30.22;100.00
29549;BME280;16487;53.094;8.800;2022-08-19T12:19:00;101266.78;;;29.51;100.00
29549;BME280;16487;53.094;8.800;2022-08-19T12:21:33;101271.44;;;28.58;100.00
29549;BME280;16487;53.094;8.800;2022-08-19T12:24:06;101260.97;;;28.81;100.00
29549;BME280;16487;53.094;8.800;2022-08-19T12:26:35;101261.72;;;28.61;100.00
29549;BME280;16487;53.094;8.800;2022-08-19T12:29:20;101265.06;;;30.19;100.00
29549;BME280;16487;53.094;8.800;2022-08-19T12:31:56;101257.41;;;30.72;100.00
29549;BME280;16487;53.094;8.800;2022-08-19T12:34:29;101250.97;;;31.47;100.00
29549;BME280;16487;53.094;8.800;2022-08-19T12:37:03;101269.75;;;30.88;100.00
29549;BME280;16487;53.094;8.800;2022-08-19T12:39:39;101267.50;;;30.43;100.00
29549;BME280;16487;53.094;8.800;2022-08-19T12:42:08;101260.38;;;30.37;100.00
29549;BME280;16487;53.094;8.800;2022-08-19T12:44:38;101258.25;;;31.10;100.00
29549;BME280;16487;53.094;8.800;2022-08-19T12:47:10;101253.53;;;30.62;100.00
29549;BME280;16487;53.094;8.800;2022-08-19T12:49:41;101250.78;;;29.98;100.00
29549;BME280;16487;53.094;8.800;2022-08-19T12:52:23;101258.41;;;30.24;100.00
29549;BME280;16487;53.094;8.800;2022-08-19T12:54:54;101247.47;;;30.81;100.00
29549;BME280;16487;53.094;8.800;2022-08-19T12:57:25;101251.97;;;30.39;100.00
29549;BME280;16487;53.094;8.800;2022-08-19T13:00:03;101235.13;;;31.86;100.00
29549;BME280;16487;53.094;8.800;2022-08-19T13:02:33;101233.41;;;32.30;100.00
29549;BME280;16487;53.094;8.800;2022-08-19T13:05:07;101230.84;;;32.81;100.00
29549;BME280;16487;53.094;8.800;2022-08-19T13:07:38;101242.63;;;31.89;100.00